Time;durP1;ratioP1;P1;durP2;ratioP2;P2;SDS_P1;SDS_P2;PMS_P1;PMS_P2;Temp;Humidity;BMP_temperature;BMP_pressure;BME280_temperature;BME280_humidity;BME280_pressure;Samples;Min_cycle;Max_cycle;Signal;HPM_P1;HPM_P2
2023/05/12 00:01:36;;;;;;;21.63;18.33;;;15.80;99.90;;;;;;5040270;28;20243;-32
2023/05/12 00:04:03;;;;;;;22.23;19.63;;;15.80;99.90;;;;;;5024835;28;20212;-32
2023/05/12 00:06:31;;;;;;;20.57;18.13;;;15.80;99.90;;;;;;5023282;28;20200;-32
2023/05/12 00:09:00;;;;;;;22.43;19.30;;;15.80;99.90;;;;;;5024804;28;20706;-32
2023/05/12 00:11:30;;;;;;;20.60;18.33;;;15.70;99.90;;;;;;5024092;28;20205;-32
2023/05/12 00:13:59;;;;;;;20.67;17.90;;;15.80;99.90;;;;;;5039397;28;20331;-32
2023/05/12 00:16:26;;;;;;;20.50;18.00;;;15.70;99.90;;;;;;5024682;28;20209;-32
2023/05/12 00:18:59;;;;;;;22.83;19.77;;;15.70;99.90;;;;;;5039699;28;20220;-32
2023/05/12 00:21:28;;;;;;;21.87;19.20;;;15.70;99.90;;;;;;5039633;28;20227;-32
2023/05/12 00:23:58;;;;;;;21.00;18.67;;;15.80;99.90;;;;;;5024234;28;20632;-32
2023/05/12 00:26:33;;;;;;;25.20;19.83;;;15.80;99.90;;;;;;5024698;28;20631;-32
2023/05/12 00:29:00;;;;;;;23.40;20.47;;;15.80;99.90;;;;;;5041889;28;20211;-32
2023/05/12 00:31:32;;;;;;;22.33;19.37;;;15.80;99.90;;;;;;5042802;28;20674;-32
2023/05/12 00:33:59;;;;;;;21.63;19.27;;;15.80;99.90;;;;;;5043411;28;20197;-32
2023/05/12 00:36:26;;;;;;;22.43;20.03;;;15.80;99.90;;;;;;5043230;28;20219;-32
2023/05/12 00:38:55;;;;;;;22.03;19.60;;;15.80;99.90;;;;;;5044208;28;20220;-32
2023/05/12 00:41:24;;;;;;;25.97;21.50;;;15.80;99.90;;;;;;5026439;28;20727;-32
2023/05/12 00:43:54;;;;;;;24.17;20.47;;;15.80;99.90;;;;;;5042740;28;20591;-32
2023/05/12 00:46:24;;;;;;;21.93;18.87;;;15.80;99.90;;;;;;5044261;28;20219;-32
2023/05/12 00:48:51;;;;;;;21.70;19.40;;;15.80;99.90;;;;;;5042357;28;20204;-32
2023/05/12 00:51:24;;;;;;;22.70;19.83;;;15.80;99.90;;;;;;5042678;28;20205;-31
2023/05/12 00:53:56;;;;;;;23.17;20.70;;;15.80;99.90;;;;;;5043362;28;20894;-32
2023/05/12 00:56:27;;;;;;;24.90;20.40;;;15.80;99.90;;;;;;5043804;28;20254;-32
2023/05/12 00:58:56;;;;;;;24.73;19.97;;;15.80;99.90;;;;;;5031917;28;20263;-31
2023/05/12 01:01:30;;;;;;;25.40;20.70;;;15.70;99.90;;;;;;5024826;28;20229;-31
2023/05/12 01:04:04;;;;;;;23.20;19.90;;;15.80;99.90;;;;;;5028359;28;20243;-31
2023/05/12 01:06:38;;;;;;;24.70;20.40;;;15.70;99.90;;;;;;5039941;28;20205;-31
2023/05/12 01:09:07;;;;;;;25.27;21.43;;;15.80;99.90;;;;;;5033675;28;20633;-31
2023/05/12 01:11:39;;;;;;;24.17;20.80;;;15.80;99.90;;;;;;5041266;28;20212;-31
2023/05/12 01:14:06;;;;;;;23.47;20.63;;;15.80;99.90;;;;;;5043685;28;20232;-31
2023/05/12 01:16:44;;;;;;;23.30;20.70;;;15.80;99.90;;;;;;5028237;28;20648;-32
2023/05/12 01:19:42;;;;;;;25.00;21.63;;;15.70;99.90;;;;;;5043873;28;20686;-31
2023/05/12 01:22:11;;;;;;;22.60;18.97;;;15.80;99.90;;;;;;5044104;28;20285;-31
2023/05/12 01:24:54;;;;;;;23.33;19.63;;;15.70;99.90;;;;;;5047240;28;20236;-31
2023/05/12 01:27:24;;;;;;;24.87;20.50;;;15.70;99.90;;;;;;5042825;28;20307;-31
2023/05/12 01:29:54;;;;;;;22.43;19.93;;;15.70;99.90;;;;;;5047394;28;20772;-31
2023/05/12 01:32:25;;;;;;;22.73;18.93;;;15.70;99.90;;;;;;5044591;28;20326;-31
2023/05/12 01:34:54;;;;;;;23.38;19.80;;;15.70;99.90;;;;;;5046591;28;20215;-32
2023/05/12 01:37:28;;;;;;;22.43;19.47;;;15.70;99.90;;;;;;5045857;28;20209;-31
2023/05/12 01:39:58;;;;;;;23.87;19.60;;;15.70;99.90;;;;;;5045987;28;20776;-31
2023/05/12 01:42:25;;;;;;;22.30;19.73;;;15.70;99.90;;;;;;5047254;28;20761;-31
2023/05/12 01:44:52;;;;;;;22.50;19.40;;;15.70;99.90;;;;;;5028352;28;20215;-31
2023/05/12 01:47:21;;;;;;;20.80;18.60;;;15.70;99.90;;;;;;5047604;28;20204;-31
2023/05/12 01:49:53;;;;;;;20.90;18.70;;;15.70;99.90;;;;;;5045651;28;20212;-31
2023/05/12 01:52:27;;;;;;;20.90;18.47;;;15.70;99.90;;;;;;5046076;28;20558;-31
2023/05/12 01:54:54;;;;;;;20.23;17.55;;;15.70;99.90;;;;;;5046072;28;20207;-31
2023/05/12 01:57:24;;;;;;;21.73;18.90;;;15.70;99.90;;;;;;5045212;28;20590;-31
2023/05/12 01:59:51;;;;;;;21.10;18.77;;;15.70;99.90;;;;;;5045187;28;20223;-31
2023/05/12 02:02:20;;;;;;;21.07;18.77;;;15.70;99.90;;;;;;5044474;28;20337;-31
2023/05/12 02:04:48;;;;;;;20.83;18.60;;;15.70;99.90;;;;;;5045209;28;20726;-31
2023/05/12 02:07:19;;;;;;;18.40;16.50;;;15.60;99.90;;;;;;5047061;28;21019;-31
2023/05/12 02:09:47;;;;;;;20.03;17.40;;;15.60;99.90;;;;;;5046795;28;20200;-31
2023/05/12 02:12:14;;;;;;;20.23;18.03;;;15.60;99.90;;;;;;5044998;28;20206;-31
2023/05/12 02:14:41;;;;;;;20.20;18.10;;;15.60;99.90;;;;;;5046643;28;20204;-31
2023/05/12 02:17:14;;;;;;;21.77;17.90;;;15.60;99.90;;;;;;5046099;28;20204;-31
2023/05/12 02:19:43;;;;;;;21.10;18.47;;;15.60;99.90;;;;;;5045149;28;20222;-31
2023/05/12 02:22:12;;;;;;;21.03;18.70;;;15.60;99.90;;;;;;5046328;28;20252;-31
2023/05/12 02:24:42;;;;;;;20.20;18.10;;;15.60;99.90;;;;;;5046293;28;20212;-31
2023/05/12 02:27:14;;;;;;;20.30;17.00;;;15.60;99.90;;;;;;5046268;28;20204;-31
2023/05/12 02:29:41;;;;;;;20.20;18.10;;;15.60;99.90;;;;;;5044947;28;20641;-31
2023/05/12 02:32:13;;;;;;;20.10;18.00;;;15.70;99.90;;;;;;5044927;28;20282;-31
2023/05/12 02:34:40;;;;;;;21.77;19.33;;;15.70;99.90;;;;;;5043244;28;20294;-31
2023/05/12 02:37:07;;;;;;;22.13;18.50;;;15.70;99.90;;;;;;5044558;28;20294;-31
2023/05/12 02:39:34;;;;;;;20.17;18.07;;;15.70;99.90;;;;;;5044634;28;20207;-31
2023/05/12 02:42:01;;;;;;;21.93;17.73;;;15.60;99.90;;;;;;5046552;28;20338;-31
2023/05/12 02:44:28;;;;;;;19.00;17.00;;;15.60;99.90;;;;;;5046292;28;20654;-31
2023/05/12 02:46:56;;;;;;;20.93;18.70;;;15.60;99.90;;;;;;5046062;28;20203;-31
2023/05/12 02:49:26;;;;;;;20.27;17.63;;;15.60;99.90;;;;;;5044723;28;20228;-31
2023/05/12 02:51:54;;;;;;;18.77;16.20;;;15.60;99.90;;;;;;5037492;28;20696;-31
2023/05/12 02:54:21;;;;;;;19.07;17.03;;;15.60;99.90;;;;;;5024598;28;20212;-31
2023/05/12 02:56:48;;;;;;;18.13;16.27;;;15.60;99.90;;;;;;5025699;28;20920;-31
2023/05/12 02:59:15;;;;;;;19.83;17.20;;;15.60;99.90;;;;;;5024180;28;20467;-31
2023/05/12 03:01:42;;;;;;;18.77;16.87;;;15.60;99.90;;;;;;5040546;28;20217;-31
2023/05/12 03:04:12;;;;;;;16.43;14.73;;;15.60;99.90;;;;;;5026051;28;20675;-31
2023/05/12 03:06:44;;;;;;;16.37;14.57;;;15.60;99.90;;;;;;5040933;28;20204;-32
2023/05/12 03:09:13;;;;;;;13.93;12.53;;;15.60;99.90;;;;;;5026401;28;20236;-31
2023/05/12 03:11:40;;;;;;;10.43;9.40;;;15.60;99.90;;;;;;5024431;28;20212;-33
2023/05/12 03:14:10;;;;;;;9.47;8.43;;;15.50;99.90;;;;;;5024202;28;20270;-32
2023/05/12 03:16:37;;;;;;;10.33;7.67;;;15.40;99.90;;;;;;5025379;28;20204;-32
2023/05/12 03:19:04;;;;;;;7.50;6.80;;;15.40;99.90;;;;;;5025739;28;20249;-32
2023/05/12 03:21:32;;;;;;;7.33;6.63;;;15.30;99.90;;;;;;5023891;28;20216;-32
2023/05/12 03:23:59;;;;;;;9.57;7.17;;;15.20;99.90;;;;;;5023827;28;20324;-32
2023/05/12 03:26:30;;;;;;;7.93;7.00;;;15.20;99.90;;;;;;5030809;28;20231;-32
2023/05/12 03:28:58;;;;;;;7.63;6.60;;;15.10;99.90;;;;;;5043347;28;20251;-32
2023/05/12 03:31:25;;;;;;;7.57;6.77;;;15.10;99.90;;;;;;5045169;28;20678;-31
2023/05/12 03:33:52;;;;;;;7.13;6.43;;;15.00;99.90;;;;;;5043400;28;20208;-32
2023/05/12 03:36:22;;;;;;;7.67;6.97;;;15.00;99.90;;;;;;5027272;28;20211;-31
2023/05/12 03:38:49;;;;;;;6.83;6.23;;;15.00;99.90;;;;;;5043440;28;20698;-32
2023/05/12 03:41:17;;;;;;;8.13;6.93;;;14.90;99.90;;;;;;5044887;28;20219;-32
2023/05/12 03:43:46;;;;;;;7.73;6.83;;;15.00;99.90;;;;;;5044094;28;20238;-31
2023/05/12 03:46:13;;;;;;;8.40;7.10;;;14.90;99.90;;;;;;5045089;28;20212;-32
2023/05/12 03:48:41;;;;;;;7.77;6.93;;;14.90;99.90;;;;;;5043260;28;20199;-32
2023/05/12 03:51:10;;;;;;;7.70;6.90;;;14.90;99.90;;;;;;5044981;28;20760;-32
2023/05/12 03:53:43;;;;;;;10.23;7.00;;;14.90;99.90;;;;;;5026984;28;20330;-32
2023/05/12 03:56:11;;;;;;;8.10;7.17;;;14.90;99.90;;;;;;5044924;28;20319;-32
2023/05/12 03:58:43;;;;;;;9.97;8.03;;;14.90;99.90;;;;;;5044496;28;20204;-32
2023/05/12 04:01:10;;;;;;;10.23;7.97;;;14.90;99.90;;;;;;5042441;28;20204;-31
2023/05/12 04:03:42;;;;;;;10.10;7.60;;;14.80;99.90;;;;;;5044882;28;20228;-31
2023/05/12 04:06:17;;;;;;;11.03;8.57;;;14.90;99.90;;;;;;5043507;28;20291;-31
2023/05/12 04:08:44;;;;;;;10.03;8.57;;;14.80;99.90;;;;;;5044739;28;20641;-31
2023/05/12 04:11:16;;;;;;;8.00;7.20;;;14.80;99.90;;;;;;5043001;28;20608;-31
2023/05/12 04:13:43;;;;;;;8.90;7.17;;;14.80;99.90;;;;;;5042750;28;20654;-31
2023/05/12 04:16:15;;;;;;;8.33;7.07;;;14.80;99.90;;;;;;5043737;28;20232;-31
2023/05/12 04:18:44;;;;;;;8.70;7.90;;;14.80;99.90;;;;;;5044574;28;20207;-31
2023/05/12 04:21:12;;;;;;;8.60;7.77;;;14.80;99.90;;;;;;5044761;28;20231;-31
2023/05/12 04:23:44;;;;;;;7.90;7.10;;;14.70;99.90;;;;;;5044362;28;20218;-31
2023/05/12 04:26:16;;;;;;;8.23;6.73;;;14.70;99.90;;;;;;5044269;28;20961;-31
2023/05/12 04:28:46;;;;;;;8.03;7.23;;;14.70;99.90;;;;;;5044456;28;20202;-31
2023/05/12 04:31:16;;;;;;;8.67;7.77;;;14.80;99.90;;;;;;5044455;28;20647;-31
2023/05/12 04:33:50;;;;;;;8.57;7.13;;;14.80;99.90;;;;;;5042019;28;20262;-31
2023/05/12 04:36:17;;;;;;;8.50;7.60;;;14.80;99.90;;;;;;5044486;28;20212;-32
2023/05/12 04:38:45;;;;;;;7.77;6.97;;;14.80;99.90;;;;;;5042946;28;20747;-32
2023/05/12 04:41:12;;;;;;;9.23;6.63;;;14.70;99.90;;;;;;5044617;28;20212;-32
2023/05/12 04:43:42;;;;;;;8.03;6.97;;;14.70;99.90;;;;;;5042416;28;20220;-32
2023/05/12 04:46:12;;;;;;;7.03;6.33;;;14.80;99.90;;;;;;5044017;28;20208;-32
2023/05/12 04:48:45;;;;;;;6.97;6.27;;;14.70;99.90;;;;;;5042519;28;20666;-32
2023/05/12 04:51:19;;;;;;;8.90;6.40;;;14.70;99.90;;;;;;5043285;28;20212;-31
2023/05/12 04:53:51;;;;;;;6.67;6.07;;;14.70;99.90;;;;;;5044161;28;20246;-32
2023/05/12 04:56:18;;;;;;;7.33;6.17;;;14.70;99.90;;;;;;5042647;28;20294;-32
2023/05/12 04:58:45;;;;;;;6.80;6.10;;;14.80;99.90;;;;;;5046201;28;20212;-31
2023/05/12 05:01:12;;;;;;;6.70;6.03;;;14.80;99.90;;;;;;5046568;28;20226;-31
2023/05/12 05:03:42;;;;;;;7.17;6.47;;;14.80;99.90;;;;;;5046422;28;20781;-31
2023/05/12 05:06:10;;;;;;;6.73;6.03;;;14.80;99.90;;;;;;5046590;28;20742;-31
2023/05/12 05:08:39;;;;;;;6.67;5.97;;;14.80;99.90;;;;;;5045632;28;20295;-31
2023/05/12 05:11:09;;;;;;;7.13;6.20;;;14.70;99.90;;;;;;5046720;28;20291;-32
2023/05/12 05:13:36;;;;;;;7.07;5.53;;;14.70;99.90;;;;;;5045939;28;20327;-32
2023/05/12 05:16:06;;;;;;;5.65;5.05;;;14.70;99.90;;;;;;5048127;28;20690;-32
2023/05/12 05:18:33;;;;;;;6.10;5.50;;;14.70;99.90;;;;;;5046666;28;20207;-32
2023/05/12 05:21:01;;;;;;;6.60;5.80;;;14.70;99.90;;;;;;5046298;28;20230;-32
2023/05/12 05:23:28;;;;;;;5.93;5.33;;;14.70;99.90;;;;;;5047615;28;20270;-32
2023/05/12 05:25:58;;;;;;;6.90;4.97;;;14.70;99.90;;;;;;5029380;28;20738;-32
2023/05/12 05:28:27;;;;;;;5.10;4.37;;;14.70;99.90;;;;;;5047978;28;20262;-32
2023/05/12 05:30:57;;;;;;;5.87;4.03;;;14.70;99.90;;;;;;5047492;28;20215;-32
2023/05/12 05:33:31;;;;;;;4.90;4.20;;;14.70;99.90;;;;;;5046441;28;20200;-32
2023/05/12 05:36:01;;;;;;;4.50;3.80;;;14.60;99.90;;;;;;5045751;28;20251;-32
2023/05/12 05:38:30;;;;;;;6.50;4.13;;;14.60;99.90;;;;;;5046585;28;20354;-32
2023/05/12 05:41:00;;;;;;;4.13;3.80;;;14.60;99.90;;;;;;5046894;28;20572;-32
2023/05/12 05:43:28;;;;;;;4.40;3.50;;;14.60;99.90;;;;;;5027339;28;20747;-32
2023/05/12 05:45:58;;;;;;;3.87;3.47;;;14.50;99.90;;;;;;5026380;28;20320;-32
2023/05/12 05:48:28;;;;;;;4.57;3.50;;;14.50;99.90;;;;;;5027967;28;20299;-32
2023/05/12 05:50:59;;;;;;;3.70;3.30;;;14.50;99.90;;;;;;5028637;28;20235;-32
2023/05/12 05:53:31;;;;;;;3.63;3.20;;;14.50;99.90;;;;;;5026156;28;20279;-32
2023/05/12 05:55:58;;;;;;;3.57;3.23;;;14.50;99.90;;;;;;5027570;28;20232;-31
2023/05/12 05:58:30;;;;;;;3.50;3.20;;;14.50;99.90;;;;;;5028137;28;20236;-32
2023/05/12 06:01:00;;;;;;;4.47;3.37;;;14.60;99.90;;;;;;5027649;28;20641;-31
2023/05/12 06:03:27;;;;;;;3.43;3.13;;;14.50;99.90;;;;;;5025731;28;20213;-31
2023/05/12 06:05:57;;;;;;;3.47;3.13;;;14.60;99.90;;;;;;5026736;28;20216;-31
2023/05/12 06:08:28;;;;;;;4.40;3.27;;;14.60;99.90;;;;;;5008475;28;20772;-31
2023/05/12 06:11:01;;;;;;;3.20;2.90;;;14.60;99.90;;;;;;5024800;28;20208;-32
2023/05/12 06:13:30;;;;;;;3.50;3.00;;;14.60;99.90;;;;;;5026747;28;20620;-31
2023/05/12 06:15:57;;;;;;;3.23;2.60;;;14.60;99.90;;;;;;5027098;28;20212;-31
2023/05/12 06:18:29;;;;;;;2.93;2.63;;;14.60;99.90;;;;;;5025088;28;20212;-31
2023/05/12 06:20:56;;;;;;;3.70;3.00;;;14.60;99.90;;;;;;5026590;28;20212;-31
2023/05/12 06:23:24;;;;;;;2.87;2.47;;;14.60;99.90;;;;;;5026569;28;20659;-31
2023/05/12 06:25:53;;;;;;;2.83;2.63;;;14.60;99.90;;;;;;5042661;28;20244;-31
2023/05/12 06:28:22;;;;;;;2.43;2.10;;;14.60;99.90;;;;;;5044621;28;20669;-31
2023/05/12 06:30:50;;;;;;;3.03;2.70;;;14.60;99.90;;;;;;5044605;28;20231;-31
2023/05/12 06:33:17;;;;;;;2.73;2.50;;;14.60;99.90;;;;;;5045366;28;20212;-31
2023/05/12 06:35:46;;;;;;;2.70;2.50;;;14.60;99.90;;;;;;5046575;28;20227;-30
2023/05/12 06:38:13;;;;;;;2.90;2.70;;;14.50;99.90;;;;;;5046149;28;20200;-30
2023/05/12 06:40:40;;;;;;;3.17;2.87;;;14.50;99.90;;;;;;5046415;28;20737;-30
2023/05/12 06:43:08;;;;;;;5.10;3.10;;;14.50;99.90;;;;;;5045984;28;20228;-30
2023/05/12 06:45:37;;;;;;;3.03;2.80;;;14.50;99.90;;;;;;5044696;28;20295;-30
2023/05/12 06:48:04;;;;;;;3.40;3.10;;;14.60;99.90;;;;;;5045816;28;20683;-30
2023/05/12 06:50:39;;;;;;;2.73;2.43;;;14.50;99.90;;;;;;5043654;28;20207;-30
2023/05/12 06:53:09;;;;;;;3.20;2.90;;;14.50;99.90;;;;;;5046233;28;20235;-30
2023/05/12 06:55:39;;;;;;;4.40;2.80;;;14.50;99.90;;;;;;5044467;28;20588;-30
2023/05/12 06:58:08;;;;;;;3.17;2.97;;;14.60;99.90;;;;;;5044525;28;20378;-30
2023/05/12 07:00:35;;;;;;;3.40;3.10;;;14.60;99.90;;;;;;5045946;28;20295;-30
2023/05/12 07:03:03;;;;;;;3.63;2.53;;;14.60;99.90;;;;;;5046257;28;20336;-30
2023/05/12 07:05:34;;;;;;;3.37;3.03;;;14.60;99.90;;;;;;5044378;28;20567;-30
2023/05/12 07:08:05;;;;;;;2.87;2.67;;;14.60;99.90;;;;;;5043689;28;20729;-30
2023/05/12 07:10:36;;;;;;;4.43;2.60;;;14.70;99.90;;;;;;5044475;28;20578;-30
2023/05/12 07:13:04;;;;;;;2.33;2.13;;;14.70;99.90;;;;;;5045790;28;20236;-30
2023/05/12 07:15:35;;;;;;;3.43;3.00;;;14.70;99.90;;;;;;5044432;28;20260;-30
2023/05/12 07:18:06;;;;;;;2.83;2.37;;;14.80;99.90;;;;;;5044600;28;20215;-30
2023/05/12 07:20:33;;;;;;;2.93;2.73;;;14.80;99.90;;;;;;5043545;28;20241;-30
2023/05/12 07:23:03;;;;;;;2.60;2.40;;;14.80;99.90;;;;;;5043223;28;20581;-30
2023/05/12 07:25:30;;;;;;;3.13;2.83;;;14.90;99.90;;;;;;5024739;28;20204;-30
2023/05/12 07:27:57;;;;;;;3.00;2.70;;;14.90;99.90;;;;;;5025614;28;20205;-29
2023/05/12 07:30:24;;;;;;;2.80;2.60;;;14.90;99.90;;;;;;5024349;28;20193;-30
2023/05/12 07:32:57;;;;;;;3.00;2.70;;;15.00;99.90;;;;;;5008176;28;20209;-30
2023/05/12 07:35:24;;;;;;;3.37;2.40;;;15.00;99.90;;;;;;5024137;28;20746;-30
2023/05/12 07:37:54;;;;;;;3.13;2.77;;;15.00;99.90;;;;;;5023806;28;20201;-30
2023/05/12 07:40:23;;;;;;;2.47;2.23;;;15.10;99.90;;;;;;5008183;28;20718;-30
2023/05/12 07:42:53;;;;;;;2.43;2.23;;;15.10;99.90;;;;;;5023463;28;20205;-30
2023/05/12 07:45:24;;;;;;;2.90;2.60;;;15.20;99.90;;;;;;5007697;28;20201;-29
2023/05/12 07:47:51;;;;;;;2.37;2.17;;;15.20;99.90;;;;;;5023428;28;20201;-29
2023/05/12 07:50:24;;;;;;;3.00;2.70;;;15.20;99.90;;;;;;5023140;28;20199;-29
2023/05/12 07:52:52;;;;;;;4.10;2.60;;;15.30;99.90;;;;;;5023477;28;20209;-29
2023/05/12 07:55:24;;;;;;;2.47;2.27;;;15.40;99.90;;;;;;5023120;28;20201;-29
2023/05/12 07:57:54;;;;;;;2.17;2.07;;;15.40;99.90;;;;;;5024997;28;20243;-29
2023/05/12 08:00:21;;;;;;;2.10;1.97;;;15.50;99.90;;;;;;5023123;28;20197;-29
2023/05/12 08:02:48;;;;;;;1.90;1.75;;;15.50;99.90;;;;;;5006624;28;20201;-29
2023/05/12 08:05:21;;;;;;;2.37;2.10;;;15.50;99.90;;;;;;5023129;28;20272;-29
2023/05/12 08:07:51;;;;;;;1.93;1.83;;;15.60;99.90;;;;;;5024499;28;20574;-29
2023/05/12 08:10:21;;;;;;;2.53;2.10;;;15.60;99.90;;;;;;5023154;28;20673;-29
2023/05/12 08:12:51;;;;;;;3.80;2.20;;;15.70;99.90;;;;;;5024329;28;20255;-29
2023/05/12 08:15:18;;;;;;;2.47;2.17;;;15.70;99.90;;;;;;5023405;28;20271;-29
2023/05/12 08:17:51;;;;;;;2.50;1.95;;;15.70;99.90;;;;;;5007071;28;20340;-29
2023/05/12 08:20:18;;;;;;;3.08;2.67;;;15.80;99.90;;;;;;5024395;28;20204;-29
2023/05/12 08:22:51;;;;;;;2.77;2.50;;;15.80;99.90;;;;;;5006788;28;20316;-30
2023/05/12 08:25:18;;;;;;;3.40;3.10;;;15.90;99.90;;;;;;5024730;28;20292;-29
2023/05/12 08:27:48;;;;;;;6.07;3.45;;;15.90;99.90;;;;;;5023020;28;20255;-29
2023/05/12 08:30:18;;;;;;;5.53;3.70;;;15.90;99.90;;;;;;5023010;28;20667;-29
2023/05/12 08:32:45;;;;;;;3.53;3.23;;;16.00;99.90;;;;;;5022651;28;20303;-29
2023/05/12 08:35:12;;;;;;;3.25;2.95;;;16.00;99.90;;;;;;5006641;28;20212;-29
2023/05/12 08:37:42;;;;;;;3.47;2.72;;;16.10;99.90;;;;;;5022475;28;20618;-29
2023/05/12 08:40:22;;;;;;;3.17;2.87;;;16.10;99.90;;;;;;5034858;28;20497;-29
2023/05/12 08:42:56;;;;;;;3.60;2.80;;;16.10;99.90;;;;;;5042824;28;20203;-29
2023/05/12 08:45:28;;;;;;;4.07;2.40;;;16.20;99.90;;;;;;5044027;28;20211;-29
2023/05/12 08:48:01;;;;;;;2.40;2.20;;;16.20;99.90;;;;;;5041956;28;20714;-29
2023/05/12 08:50:33;;;;;;;2.55;2.28;;;16.20;99.90;;;;;;5006686;28;20274;-29
2023/05/12 08:53:11;;;;;;;3.42;3.13;;;16.20;99.90;;;;;;5024200;28;20214;-29
2023/05/12 08:55:42;;;;;;;4.07;2.70;;;16.20;99.90;;;;;;5024144;28;20208;-29
2023/05/12 08:58:25;;;;;;;2.70;2.50;;;16.20;99.90;;;;;;5024175;28;20212;-29
2023/05/12 09:01:15;;;;;;;2.77;2.57;;;16.30;99.90;;;;;;5024073;28;20193;-29
2023/05/12 09:03:43;;;;;;;3.10;2.80;;;16.30;99.90;;;;;;5024173;28;20667;-29
2023/05/12 09:06:15;;;;;;;3.77;2.90;;;16.30;99.90;;;;;;5024810;28;20209;-29
2023/05/12 09:08:43;;;;;;;4.07;2.60;;;16.30;99.90;;;;;;5024315;28;20197;-29
2023/05/12 09:11:14;;;;;;;2.67;2.37;;;16.30;99.90;;;;;;5022184;28;20300;-29
2023/05/12 09:13:52;;;;;;;3.20;2.30;;;16.40;99.90;;;;;;5022560;28;20209;-29
2023/05/12 09:16:24;;;;;;;5.05;3.00;;;16.40;99.90;;;;;;5024129;28;20204;-29
2023/05/12 09:19:01;;;;;;;5.60;2.67;;;16.40;99.90;;;;;;5022253;28;20295;-29
2023/05/12 09:21:32;;;;;;;2.95;2.40;;;16.40;99.90;;;;;;5023652;28;20232;-29
2023/05/12 09:24:07;;;;;;;3.37;2.43;;;16.40;99.90;;;;;;5033552;28;20319;-29
2023/05/12 09:26:48;;;;;;;2.78;2.53;;;16.40;99.90;;;;;;5042250;28;20223;-29
2023/05/12 09:29:16;;;;;;;2.90;2.60;;;16.40;99.90;;;;;;5042429;28;20764;-29
2023/05/12 09:31:58;;;;;;;3.03;2.70;;;16.40;99.90;;;;;;5042317;28;20202;-29
2023/05/12 09:34:39;;;;;;;3.97;2.80;;;16.40;99.90;;;;;;5042364;28;20207;-29
2023/05/12 09:37:07;;;;;;;4.18;3.00;;;16.50;99.90;;;;;;5043774;28;20220;-29
2023/05/12 09:39:35;;;;;;;3.55;3.25;;;16.50;99.90;;;;;;5042735;28;20277;-29
2023/05/12 09:42:03;;;;;;;3.20;2.90;;;16.50;99.90;;;;;;5043574;28;20700;-29
2023/05/12 09:44:34;;;;;;;2.85;2.65;;;16.60;99.90;;;;;;5044778;28;20712;-29
2023/05/12 09:47:14;;;;;;;3.30;3.10;;;16.60;99.90;;;;;;5047343;28;20604;-29
2023/05/12 09:49:47;;;;;;;3.33;3.03;;;16.70;99.90;;;;;;5047074;28;20347;-29
2023/05/12 09:52:15;;;;;;;3.78;3.35;;;16.70;99.90;;;;;;5045549;28;20250;-29
2023/05/12 09:54:42;;;;;;;5.22;3.42;;;16.70;99.90;;;;;;5045267;28;20212;-29
2023/05/12 09:57:12;;;;;;;3.40;3.00;;;16.70;99.90;;;;;;5044666;28;20820;-29
2023/05/12 09:59:42;;;;;;;5.43;4.10;;;16.80;99.90;;;;;;5045235;28;20208;-29
2023/05/12 10:02:12;;;;;;;4.22;3.83;;;16.80;99.90;;;;;;5046903;28;20196;-30
2023/05/12 10:04:59;;;;;;;4.28;3.88;;;16.80;99.90;;;;;;5045612;28;20225;-29
2023/05/12 10:07:30;;;;;;;3.93;3.60;;;16.80;99.90;;;;;;5047199;28;20192;-29
2023/05/12 10:10:03;;;;;;;4.40;3.78;;;16.80;99.90;;;;;;5044880;28;20696;-29
2023/05/12 10:12:35;;;;;;;4.43;4.03;;;16.80;99.90;;;;;;5044968;28;20598;-29
2023/05/12 10:15:05;;;;;;;4.17;3.77;;;16.90;99.90;;;;;;5027846;28;20204;-30
2023/05/12 10:17:36;;;;;;;4.90;4.22;;;17.00;99.90;;;;;;5042767;28;20204;-29
2023/05/12 10:20:10;;;;;;;5.40;4.72;;;17.00;99.90;;;;;;5025570;28;20208;-29
2023/05/12 10:22:40;;;;;;;5.40;4.90;;;17.10;99.90;;;;;;5031621;28;20568;-29
2023/05/12 10:25:08;;;;;;;6.40;5.20;;;17.20;99.90;;;;;;5032942;28;20905;-29
2023/05/12 10:27:38;;;;;;;7.03;6.00;;;17.30;99.90;;;;;;5026899;28;20213;-29
2023/05/12 10:30:07;;;;;;;6.68;5.97;;;17.30;99.90;;;;;;5027990;28;20213;-30
2023/05/12 10:32:39;;;;;;;7.88;6.15;;;17.40;99.90;;;;;;5046146;28;20240;-29
2023/05/12 10:35:14;;;;;;;7.18;6.22;;;17.40;99.90;;;;;;5046113;28;20672;-29
2023/05/12 10:37:48;;;;;;;7.38;6.57;;;17.50;99.90;;;;;;5046367;28;20610;-30
2023/05/12 10:40:25;;;;;;;7.88;7.15;;;17.50;99.90;;;;;;5044752;28;20556;-30
2023/05/12 10:42:58;;;;;;;7.10;6.45;;;17.60;99.90;;;;;;5046595;28;20764;-29
2023/05/12 10:45:25;;;;;;;7.68;6.88;;;17.60;99.90;;;;;;5041268;28;20221;-29
2023/05/12 10:48:05;;;;;;;7.85;7.15;;;17.70;99.90;;;;;;5031919;28;20277;-30
2023/05/12 10:50:35;;;;;;;8.30;7.50;;;17.70;99.90;;;;;;5045858;28;20306;-29
2023/05/12 10:53:04;;;;;;;8.57;7.88;;;17.80;99.90;;;;;;5045592;28;20208;-30
2023/05/12 10:55:45;;;;;;;7.53;6.93;;;17.80;99.90;;;;;;5043958;28;20211;-30
2023/05/12 10:58:13;;;;;;;9.30;8.50;;;17.80;99.90;;;;;;5045536;28;20354;-30
2023/05/12 11:00:45;;;;;;;8.90;8.00;;;17.90;99.90;;;;;;5046272;28;20208;-30
2023/05/12 11:03:15;;;;;;;8.70;7.90;;;17.90;99.90;;;;;;5045602;28;20211;-29
2023/05/12 11:05:57;;;;;;;8.38;7.63;;;17.90;99.90;;;;;;5027702;28;20244;-29
2023/05/12 11:08:28;;;;;;;8.10;6.47;;;17.90;99.90;;;;;;5045569;28;20205;-29
2023/05/12 11:10:57;;;;;;;6.95;6.28;;;17.80;99.90;;;;;;5043859;28;20246;-29
2023/05/12 11:13:25;;;;;;;7.25;6.32;;;17.80;99.90;;;;;;5043887;28;20697;-29
2023/05/12 11:15:53;;;;;;;6.38;5.78;;;17.80;99.90;;;;;;5044259;28;20297;-30
2023/05/12 11:18:23;;;;;;;6.50;5.90;;;17.70;99.90;;;;;;5045135;28;20200;-30
2023/05/12 11:20:50;;;;;;;6.88;6.18;;;17.70;99.90;;;;;;5043567;28;20255;-29
2023/05/12 11:23:30;;;;;;;8.52;5.88;;;17.70;99.90;;;;;;5044332;28;20216;-29
2023/05/12 11:25:59;;;;;;;7.05;6.45;;;17.60;99.90;;;;;;5044220;28;20200;-29
2023/05/12 11:28:27;;;;;;;6.85;5.50;;;17.60;99.90;;;;;;5043398;28;20250;-29
2023/05/12 11:30:57;;;;;;;7.78;6.05;;;17.60;99.90;;;;;;5045412;28;20201;-29
2023/05/12 11:33:24;;;;;;;7.53;5.73;;;17.60;99.90;;;;;;5043931;28;20558;-29
2023/05/12 11:35:51;;;;;;;7.22;6.43;;;17.60;99.90;;;;;;5043359;28;20549;-29
2023/05/12 11:38:23;;;;;;;6.50;5.90;;;17.60;99.90;;;;;;5041532;28;20244;-29
2023/05/12 11:40:50;;;;;;;8.52;6.13;;;17.60;99.90;;;;;;5023699;28;20208;-29
2023/05/12 11:43:21;;;;;;;6.47;5.97;;;17.70;99.90;;;;;;5021926;28;20611;-29
2023/05/12 11:45:51;;;;;;;7.20;6.50;;;17.70;99.90;;;;;;5044759;28;20273;-30
2023/05/12 11:48:20;;;;;;;6.95;6.35;;;17.70;99.90;;;;;;5027781;28;20209;-29
2023/05/12 11:50:52;;;;;;;7.38;6.63;;;17.70;99.90;;;;;;5024695;28;20678;-29
2023/05/12 11:53:22;;;;;;;8.20;7.40;;;17.60;99.90;;;;;;5025015;28;20246;-29
2023/05/12 11:55:55;;;;;;;7.70;7.00;;;17.60;99.90;;;;;;5032523;28;20208;-29
2023/05/12 11:58:25;;;;;;;8.05;6.22;;;17.60;99.90;;;;;;5044577;28;20344;-29
2023/05/12 12:00:56;;;;;;;6.50;5.90;;;17.60;99.90;;;;;;5042779;28;20208;-29
2023/05/12 12:03:26;;;;;;;22.02;9.02;;;17.60;99.90;;;;;;5043424;28;20246;-30
2023/05/12 12:06:08;;;;;;;13.18;7.32;;;17.70;99.90;;;;;;5043179;28;20271;-29
2023/05/12 12:08:39;;;;;;;8.38;6.20;;;17.70;99.90;;;;;;5044536;28;20295;-29
2023/05/12 12:11:11;;;;;;;6.82;6.22;;;17.80;99.90;;;;;;5043451;28;20254;-29
2023/05/12 12:13:55;;;;;;;13.52;7.35;;;17.80;99.90;;;;;;5043921;28;20635;-29
2023/05/12 12:16:31;;;;;;;6.03;5.38;;;17.90;99.90;;;;;;5043262;28;20298;-29
2023/05/12 12:18:59;;;;;;;8.10;6.30;;;17.90;99.90;;;;;;5043291;28;20199;-29
2023/05/12 12:21:28;;;;;;;4.97;4.50;;;17.90;99.90;;;;;;5043635;28;20230;-29
2023/05/12 12:23:56;;;;;;;5.20;4.70;;;18.00;99.90;;;;;;5027627;28;20209;-29
2023/05/12 12:26:25;;;;;;;4.03;3.63;;;18.00;99.90;;;;;;5039621;28;20232;-30
2023/05/12 12:28:55;;;;;;;4.07;3.70;;;18.00;99.90;;;;;;5024803;28;20201;-30
2023/05/12 12:31:24;;;;;;;4.85;3.55;;;18.00;99.90;;;;;;5023577;28;20650;-30
2023/05/12 12:33:51;;;;;;;3.92;3.20;;;18.00;99.90;;;;;;5024565;28;20259;-29
2023/05/12 12:36:19;;;;;;;3.85;3.20;;;18.00;99.90;;;;;;5024583;28;20320;-30
2023/05/12 12:38:48;;;;;;;3.97;3.20;;;18.00;99.90;;;;;;5024985;28;20205;-30
2023/05/12 12:41:18;;;;;;;5.28;3.33;;;18.10;99.90;;;;;;5024896;28;20628;-30
2023/05/12 12:43:50;;;;;;;3.55;3.13;;;18.10;99.90;;;;;;5023069;28;20614;-30
2023/05/12 12:46:19;;;;;;;5.32;3.22;;;18.20;99.90;;;;;;5023835;28;20720;-30
2023/05/12 12:48:51;;;;;;;3.50;3.20;;;18.20;99.90;;;;;;5024125;28;20216;-30
2023/05/12 12:51:18;;;;;;;3.78;3.33;;;18.30;99.90;;;;;;5044135;28;20258;-30
2023/05/12 12:53:48;;;;;;;6.75;3.10;;;18.40;99.90;;;;;;5043243;28;20559;-30
2023/05/12 12:56:18;;;;;;;3.55;2.63;;;18.40;99.90;;;;;;5043995;28;20728;-30